Terminal Aerodrome Forecast
Issued by NWS Tulsa, OK

Home | Current Version | Previous Version | Text Only | Print | Product List | Glossary On
Versions: 1 2 3 4 5 6 7 8 9 10 11 12 13 14 15 16 17 18 19 20 21 22
000
FTUS44 KTSA 251728
TAFFSM
TAF
KFSM 251728Z 2518/2618 14006KT P6SM SKC
     FM260100 08003KT P6SM SCT250
     FM260600 VRB03KT 4SM BR SCT100
     FM261400 17006KT P6SM SCT120=

USA.gov is the U.S. government's official web portal to all federal, state and local government web resources and services.